Time;durP1;ratioP1;P1;durP2;ratioP2;P2;SDS_P1;SDS_P2;PMS_P1;PMS_P2;Temp;Humidity;BMP_temperature;BMP_pressure;BME280_temperature;BME280_humidity;BME280_pressure;Samples;Min_cycle;Max_cycle;Signal;HPM_P1;HPM_P2
2023/10/29 00:02:07;;;;;;;;;;;;;;;14.78;66.17;98964.31;4937444;29;19919;-76
2023/10/29 00:04:35;;;;;;;;;;;;;;;14.77;66.31;98968.16;4937359;29;19948;-76
2023/10/29 00:07:01;;;;;;;;;;;;;;;14.78;66.03;98952.66;4937383;29;19918;-76
2023/10/29 00:09:26;;;;;;;;;;;;;;;14.78;66.21;98937.16;4952554;29;19925;-75
2023/10/29 00:11:51;;;;;;;;;;;;;;;14.78;66.38;98915.41;4919826;29;19960;-79
2023/10/29 00:14:16;;;;;;;;;;;;;;;14.78;66.15;98904.53;4919832;29;19923;-76
2023/10/29 00:16:42;;;;;;;;;;;;;;;14.78;65.98;98914.59;4936172;29;19930;-76
2023/10/29 00:19:07;;;;;;;;;;;;;;;14.78;65.88;98929.00;4919769;29;19918;-76
2023/10/29 00:21:34;;;;;;;;;;;;;;;14.78;66.17;98907.25;4936340;29;19919;-76
2023/10/29 00:23:59;;;;;;;;;;;;;;;14.79;66.30;98929.78;4936999;29;19952;-77
2023/10/29 00:26:25;;;;;;;;;;;;;;;14.79;66.17;98941.50;4937031;29;20351;-76
2023/10/29 00:28:50;;;;;;;;;;;;;;;14.80;66.19;98934.91;4936813;29;19919;-74
2023/10/29 00:31:15;;;;;;;;;;;;;;;14.80;66.38;98925.97;4935747;29;19926;-76
2023/10/29 00:33:41;;;;;;;;;;;;;;;14.80;66.06;98905.03;4920350;29;19919;-76
2023/10/29 00:36:06;;;;;;;;;;;;;;;14.82;66.05;98910.16;4951602;29;19919;-76
2023/10/29 00:38:32;;;;;;;;;;;;;;;14.82;66.23;98904.72;4919808;29;20422;-76
2023/10/29 00:40:57;;;;;;;;;;;;;;;14.83;66.26;98898.16;4937448;29;19926;-77
2023/10/29 00:43:23;;;;;;;;;;;;;;;14.83;66.33;98890.00;4937484;29;19922;-76
2023/10/29 00:45:51;;;;;;;;;;;;;;;14.83;66.09;98888.06;4919931;29;19926;-76
2023/10/29 00:48:17;;;;;;;;;;;;;;;14.85;66.20;98883.13;4935740;29;19941;-74
2023/10/29 00:50:42;;;;;;;;;;;;;;;14.86;66.12;98884.72;4936457;29;20375;-75
2023/10/29 00:53:08;;;;;;;;;;;;;;;14.87;66.23;98893.69;4935630;29;20084;-76
2023/10/29 00:55:33;;;;;;;;;;;;;;;14.87;65.97;98891.78;4936654;29;19919;-77
2023/10/29 00:57:59;;;;;;;;;;;;;;;14.87;66.13;98882.81;4935531;29;19923;-78
2023/10/29 01:00:24;;;;;;;;;;;;;;;14.87;66.06;98866.50;4937039;29;19973;-76
2023/10/29 01:02:49;;;;;;;;;;;;;;;14.88;66.18;98851.78;4919532;29;19925;-76
2023/10/29 01:05:14;;;;;;;;;;;;;;;14.88;66.21;98860.75;4935926;29;20036;-76
2023/10/29 01:07:40;;;;;;;;;;;;;;;14.89;66.06;98859.66;4951470;29;19914;-76
2023/10/29 01:10:06;;;;;;;;;;;;;;;14.88;65.97;98860.75;4951919;29;19919;-76
2023/10/29 01:12:31;;;;;;;;;;;;;;;14.87;66.42;98859.16;4935356;29;19915;-76
2023/10/29 01:14:57;;;;;;;;;;;;;;;14.86;66.00;98860.25;4937080;29;19919;-76
2023/10/29 01:17:23;;;;;;;;;;;;;;;14.86;66.35;98854.03;4936987;29;20270;-76
2023/10/29 01:19:49;;;;;;;;;;;;;;;14.88;66.34;98857.22;4919705;29;19919;-76
2023/10/29 01:22:16;;;;;;;;;;;;;;;14.89;66.33;98853.38;4936873;29;20022;-76
2023/10/29 01:24:42;;;;;;;;;;;;;;;14.90;66.14;98855.00;4934866;29;19970;-77
2023/10/29 01:27:07;;;;;;;;;;;;;;;14.90;66.18;98863.94;4951746;29;19915;-77
2023/10/29 01:29:33;;;;;;;;;;;;;;;14.90;66.01;98861.22;4935142;29;20286;-76
2023/10/29 01:31:58;;;;;;;;;;;;;;;14.91;66.08;98867.47;4951064;29;19929;-74
2023/10/29 01:34:24;;;;;;;;;;;;;;;14.91;66.22;98857.38;4951703;29;19994;-74
2023/10/29 01:36:49;;;;;;;;;;;;;;;14.92;66.24;98842.69;4919304;29;19922;-79
2023/10/29 01:39:14;;;;;;;;;;;;;;;14.92;66.24;98847.34;4935568;29;19926;-74
2023/10/29 01:41:40;;;;;;;;;;;;;;;14.94;65.92;98858.66;4936303;29;19989;-74
2023/10/29 01:44:05;;;;;;;;;;;;;;;14.93;66.00;98848.91;4935074;29;19958;-76
2023/10/29 01:46:30;;;;;;;;;;;;;;;14.94;66.01;98847.78;4936220;29;19926;-76
2023/10/29 01:48:56;;;;;;;;;;;;;;;14.95;66.11;98846.69;4936359;29;19919;-76
2023/10/29 01:51:21;;;;;;;;;;;;;;;14.95;66.00;98840.47;4950819;29;20327;-75
2023/10/29 01:53:46;;;;;;;;;;;;;;;14.95;66.19;98845.91;4936478;29;19925;-75
2023/10/29 01:56:12;;;;;;;;;;;;;;;14.93;65.86;98843.50;4936637;29;19919;-75
2023/10/29 01:58:37;;;;;;;;;;;;;;;14.94;66.14;98839.63;4936419;29;19923;-75
2023/10/29 02:01:08;;;;;;;;;;;;;;;14.92;66.23;98833.75;4936672;29;20248;-75
2023/10/29 02:03:33;;;;;;;;;;;;;;;14.92;66.08;98837.25;4951489;29;19925;-77
2023/10/29 02:05:58;;;;;;;;;;;;;;;14.91;66.25;98832.91;4934414;29;19922;-75
2023/10/29 02:08:24;;;;;;;;;;;;;;;14.91;66.11;98837.56;4950839;29;19919;-75
2023/10/29 02:10:49;;;;;;;;;;;;;;;14.92;66.17;98841.91;4936176;29;20342;-76
2023/10/29 02:13:16;;;;;;;;;;;;;;;14.92;66.25;98839.97;4934497;29;19919;-75
2023/10/29 02:15:41;;;;;;;;;;;;;;;14.91;65.97;98829.41;4935064;29;19926;-75
2023/10/29 02:18:07;;;;;;;;;;;;;;;14.90;65.98;98831.34;4937150;29;19914;-79
2023/10/29 02:20:32;;;;;;;;;;;;;;;14.90;66.08;98827.81;4954289;29;19918;-75
2023/10/29 02:22:57;;;;;;;;;;;;;;;14.89;66.27;98829.75;4939635;29;19919;-75
2023/10/29 02:25:23;;;;;;;;;;;;;;;14.92;66.22;98825.59;4938047;29;19919;-75
2023/10/29 02:27:48;;;;;;;;;;;;;;;14.93;66.16;98822.53;4922134;29;19926;-76
2023/10/29 02:30:13;;;;;;;;;;;;;;;14.92;65.97;98831.03;4937961;29;19919;-76
2023/10/29 02:32:39;;;;;;;;;;;;;;;14.92;66.24;98822.88;4937918;29;19923;-76
2023/10/29 02:35:05;;;;;;;;;;;;;;;14.90;66.02;98828.59;4937733;29;19918;-80
2023/10/29 02:37:31;;;;;;;;;;;;;;;14.88;66.08;98821.91;4953360;29;19915;-76
2023/10/29 02:39:56;;;;;;;;;;;;;;;14.88;66.03;98816.44;4953732;29;19974;-76
2023/10/29 02:42:21;;;;;;;;;;;;;;;14.88;65.93;98813.75;4937730;29;19926;-75
2023/10/29 02:44:46;;;;;;;;;;;;;;;14.90;66.17;98822.38;4953835;29;20303;-75
2023/10/29 02:47:12;;;;;;;;;;;;;;;14.89;66.43;98820.75;4938623;29;19923;-80
2023/10/29 02:49:37;;;;;;;;;;;;;;;14.89;66.14;98840.63;4939305;29;19919;-76
2023/10/29 02:52:03;;;;;;;;;;;;;;;14.91;66.05;98832.91;4938989;29;20015;-75
2023/10/29 02:54:28;;;;;;;;;;;;;;;14.91;66.19;98849.22;4953428;29;19927;-76
2023/10/29 02:56:53;;;;;;;;;;;;;;;14.91;66.16;98830.19;4937447;29;19918;-75
2023/10/29 02:59:20;;;;;;;;;;;;;;;14.92;66.30;98825.59;4937824;29;19947;-75
2023/10/29 03:01:45;;;;;;;;;;;;;;;14.94;66.30;98817.88;4938363;29;19914;-75
2023/10/29 03:04:10;;;;;;;;;;;;;;;14.94;66.15;98828.75;4922320;29;19926;-75
2023/10/29 03:06:41;;;;;;;;;;;;;;;14.94;65.93;98826.03;4937269;29;19948;-75
2023/10/29 03:09:06;;;;;;;;;;;;;;;14.94;66.03;98820.59;4937512;29;20282;-76
2023/10/29 03:11:32;;;;;;;;;;;;;;;14.93;66.09;98825.25;4938371;29;19921;-75
2023/10/29 03:13:59;;;;;;;;;;;;;;;14.92;65.99;98836.47;4952778;29;20014;-75
2023/10/29 03:16:24;;;;;;;;;;;;;;;14.92;66.09;98842.69;4937131;29;19925;-75
2023/10/29 03:18:49;;;;;;;;;;;;;;;14.95;66.15;98846.69;4937164;29;19919;-76
2023/10/29 03:21:16;;;;;;;;;;;;;;;14.96;66.26;98842.84;4938232;29;20317;-75
2023/10/29 03:23:42;;;;;;;;;;;;;;;14.97;65.91;98838.19;4921450;29;20384;-76
2023/10/29 03:26:07;;;;;;;;;;;;;;;14.96;66.24;98836.63;4936910;29;20021;-75
2023/10/29 03:28:34;;;;;;;;;;;;;;;14.93;66.06;98836.13;4937986;29;19957;-76
2023/10/29 03:30:59;;;;;;;;;;;;;;;14.91;65.98;98818.53;4936907;29;19954;-75
2023/10/29 03:33:24;;;;;;;;;;;;;;;14.90;66.05;98819.66;4937747;29;19915;-75
2023/10/29 03:35:50;;;;;;;;;;;;;;;14.92;65.81;98833.75;4936868;29;20017;-75
2023/10/29 03:38:15;;;;;;;;;;;;;;;14.89;65.99;98829.75;4938276;29;19915;-76
2023/10/29 03:40:40;;;;;;;;;;;;;;;14.91;66.16;98834.84;4937800;29;19919;-76
2023/10/29 03:43:06;;;;;;;;;;;;;;;14.92;66.16;98825.59;4921326;29;19918;-75
2023/10/29 03:45:31;;;;;;;;;;;;;;;14.92;65.79;98828.31;4937016;29;19919;-75
2023/10/29 03:47:56;;;;;;;;;;;;;;;14.92;65.83;98828.31;4936613;29;19924;-75
2023/10/29 03:50:21;;;;;;;;;;;;;;;14.91;65.71;98823.97;4936450;29;19974;-81
2023/10/29 03:52:47;;;;;;;;;;;;;;;14.90;65.98;98827.81;4936435;29;19914;-75
2023/10/29 03:55:12;;;;;;;;;;;;;;;14.91;66.02;98837.56;4937641;29;20266;-76
2023/10/29 03:57:37;;;;;;;;;;;;;;;14.90;65.86;98834.03;4937539;29;19918;-76
2023/10/29 04:00:03;;;;;;;;;;;;;;;14.91;66.04;98851.94;4937533;29;20324;-76
2023/10/29 04:02:28;;;;;;;;;;;;;;;14.90;66.03;98855.78;4920337;29;19923;-75
2023/10/29 04:04:53;;;;;;;;;;;;;;;14.92;65.80;98852.78;4936209;29;20371;-75
2023/10/29 04:07:18;;;;;;;;;;;;;;;14.91;65.89;98870.19;4936473;29;19919;-75
2023/10/29 04:09:45;;;;;;;;;;;;;;;14.92;65.74;98882.69;4936259;29;19918;-77
2023/10/29 04:12:10;;;;;;;;;;;;;;;14.92;66.02;98913.38;4920489;29;19926;-78
2023/10/29 04:14:37;;;;;;;;;;;;;;;14.89;66.07;98921.34;4935952;29;19918;-76
2023/10/29 04:17:02;;;;;;;;;;;;;;;14.85;66.04;98898.66;4937756;29;20418;-77
2023/10/29 04:19:27;;;;;;;;;;;;;;;14.79;66.28;98887.13;4920092;29;19997;-76
2023/10/29 04:21:52;;;;;;;;;;;;;;;14.79;66.06;98880.88;4937191;29;19919;-76
2023/10/29 04:24:18;;;;;;;;;;;;;;;14.81;66.06;98884.06;4936824;29;19919;-75
2023/10/29 04:26:43;;;;;;;;;;;;;;;14.83;66.08;98882.63;4936003;29;19973;-75
2023/10/29 04:29:08;;;;;;;;;;;;;;;14.86;65.77;98884.72;4937023;29;20014;-76
2023/10/29 04:31:34;;;;;;;;;;;;;;;14.90;65.77;98879.47;4919858;29;19951;-77
2023/10/29 04:33:59;;;;;;;;;;;;;;;14.95;65.89;98887.47;4937272;29;20342;-76
2023/10/29 04:36:24;;;;;;;;;;;;;;;14.98;65.50;98892.28;4919908;29;19925;-76
2023/10/29 04:38:50;;;;;;;;;;;;;;;14.99;65.83;98879.47;4936838;29;19922;-76
2023/10/29 04:41:16;;;;;;;;;;;;;;;14.98;65.72;98889.56;4919288;29;19974;-76
2023/10/29 04:43:41;;;;;;;;;;;;;;;14.97;65.61;98876.25;4936776;29;19922;-77
2023/10/29 04:46:08;;;;;;;;;;;;;;;14.94;65.69;98883.13;4920515;29;19926;-76
2023/10/29 04:48:34;;;;;;;;;;;;;;;14.91;65.69;98897.38;4936871;29;19919;-76
2023/10/29 04:50:59;;;;;;;;;;;;;;;14.89;66.05;98884.09;4936400;29;19929;-77
2023/10/29 04:53:24;;;;;;;;;;;;;;;14.88;65.84;98884.41;4938033;29;20335;-76
2023/10/29 04:55:50;;;;;;;;;;;;;;;14.89;65.95;98902.31;4920833;29;20328;-75
2023/10/29 04:58:15;;;;;;;;;;;;;;;14.89;66.00;98902.31;4937427;29;19969;-75
2023/10/29 05:00:40;;;;;;;;;;;;;;;14.90;65.90;98906.66;4935626;29;19918;-76
2023/10/29 05:03:05;;;;;;;;;;;;;;;14.88;65.92;98887.94;4936098;29;20343;-78
2023/10/29 05:05:31;;;;;;;;;;;;;;;14.88;66.00;98906.97;4919560;29;19958;-82
2023/10/29 05:07:56;;;;;;;;;;;;;;;14.86;66.03;98905.66;4936150;29;19995;-79
2023/10/29 05:10:24;;;;;;;;;;;;;;;14.86;65.88;98900.22;4951751;29;19922;-78
2023/10/29 05:12:50;;;;;;;;;;;;;;;14.84;66.05;98894.31;4935464;29;20285;-78
2023/10/29 05:15:15;;;;;;;;;;;;;;;14.83;65.93;98909.03;4935560;29;19922;-80
2023/10/29 05:17:41;;;;;;;;;;;;;;;14.82;66.23;98907.44;4919411;29;19926;-79
2023/10/29 05:20:09;;;;;;;;;;;;;;;14.79;66.08;98914.31;4935441;29;19919;-79
2023/10/29 05:22:34;;;;;;;;;;;;;;;14.78;66.34;98909.97;4951228;29;19918;-79
2023/10/29 05:25:00;;;;;;;;;;;;;;;14.78;66.30;98926.28;4951681;29;19923;-79
2023/10/29 05:27:25;;;;;;;;;;;;;;;14.77;66.18;98913.81;4935998;29;19942;-81
2023/10/29 05:29:51;;;;;;;;;;;;;;;14.77;66.28;98927.41;4935237;29;19966;-79
2023/10/29 05:32:16;;;;;;;;;;;;;;;14.79;66.12;98914.31;4951534;29;19992;-79
2023/10/29 05:34:41;;;;;;;;;;;;;;;14.78;66.06;98920.84;4935552;29;19922;-80
2023/10/29 05:37:07;;;;;;;;;;;;;;;14.78;65.94;98936.34;4935239;29;20370;-80
2023/10/29 05:39:32;;;;;;;;;;;;;;;14.77;66.02;98951.88;4919397;29;19919;-81
2023/10/29 05:41:57;;;;;;;;;;;;;;;14.77;66.08;98970.88;4951532;29;20335;-77
2023/10/29 05:44:22;;;;;;;;;;;;;;;14.76;65.92;98977.44;4935049;29;19962;-77
2023/10/29 05:46:48;;;;;;;;;;;;;;;14.76;65.93;98971.19;4951036;29;19919;-80
2023/10/29 05:49:13;;;;;;;;;;;;;;;14.76;65.92;98971.19;4951009;29;20359;-78
2023/10/29 05:51:39;;;;;;;;;;;;;;;14.77;65.74;98973.59;4919450;29;19919;-82
2023/10/29 05:54:04;;;;;;;;;;;;;;;14.78;65.71;98986.06;4923390;29;19922;-77
2023/10/29 05:56:29;;;;;;;;;;;;;;;14.79;65.99;98987.69;4955602;29;20322;-79
2023/10/29 05:58:54;;;;;;;;;;;;;;;14.80;65.75;98978.41;4922806;29;19925;-79
2023/10/29 06:01:20;;;;;;;;;;;;;;;14.79;65.90;98993.13;4940213;29;19915;-81
2023/10/29 06:03:45;;;;;;;;;;;;;;;14.79;65.92;99000.47;4939740;29;19919;-79
2023/10/29 06:06:10;;;;;;;;;;;;;;;14.79;65.70;99008.59;4938550;29;19918;-79
2023/10/29 06:08:36;;;;;;;;;;;;;;;14.77;65.70;99003.50;4938493;29;19919;-76
2023/10/29 06:11:03;;;;;;;;;;;;;;;14.77;65.68;99002.72;4939887;29;19918;-76
2023/10/29 06:13:28;;;;;;;;;;;;;;;14.75;65.76;99007.66;4954012;29;20279;-77
2023/10/29 06:15:53;;;;;;;;;;;;;;;14.77;65.92;99022.53;4939558;29;19919;-78
2023/10/29 06:18:19;;;;;;;;;;;;;;;14.77;65.66;99019.03;4939349;29;19921;-77
2023/10/29 06:20:44;;;;;;;;;;;;;;;14.77;65.85;99027.16;4922302;29;20359;-78
2023/10/29 06:23:09;;;;;;;;;;;;;;;14.76;65.93;99029.06;4954241;29;19922;-77
2023/10/29 06:25:35;;;;;;;;;;;;;;;14.76;65.66;99039.94;4954060;29;19919;-77
2023/10/29 06:28:00;;;;;;;;;;;;;;;14.77;65.74;99035.31;4938105;29;19923;-78
2023/10/29 06:30:26;;;;;;;;;;;;;;;14.77;65.94;99038.03;4938037;29;19925;-78
2023/10/29 06:32:51;;;;;;;;;;;;;;;14.77;65.87;99036.13;4938751;29;19965;-76
2023/10/29 06:35:16;;;;;;;;;;;;;;;14.78;65.91;99039.63;4922758;29;19918;-78
2023/10/29 06:37:42;;;;;;;;;;;;;;;14.77;65.72;99052.44;4938239;29;19961;-77
2023/10/29 06:40:08;;;;;;;;;;;;;;;14.77;65.85;99047.00;4938804;29;19919;-78
2023/10/29 06:42:33;;;;;;;;;;;;;;;14.76;65.74;99052.72;4938687;29;20307;-79
2023/10/29 06:44:58;;;;;;;;;;;;;;;14.74;65.74;99053.06;4939279;29;20423;-77
2023/10/29 06:47:23;;;;;;;;;;;;;;;14.74;65.65;99055.78;4938318;29;19942;-77
2023/10/29 06:49:50;;;;;;;;;;;;;;;14.74;65.86;99074.81;4922625;29;19918;-78
2023/10/29 06:52:16;;;;;;;;;;;;;;;14.73;65.58;99077.81;4922545;29;19997;-78
2023/10/29 06:54:41;;;;;;;;;;;;;;;14.71;65.82;99075.41;4921844;29;20029;-77
2023/10/29 06:57:07;;;;;;;;;;;;;;;14.71;65.90;99083.56;4922044;29;19923;-78
2023/10/29 06:59:33;;;;;;;;;;;;;;;14.70;65.65;99096.34;4937698;29;20010;-80
2023/10/29 07:01:59;;;;;;;;;;;;;;;14.71;65.53;99094.44;4937482;29;20259;-76
2023/10/29 07:04:24;;;;;;;;;;;;;;;14.71;65.58;99105.28;4937129;29;20347;-78
2023/10/29 07:06:49;;;;;;;;;;;;;;;14.72;65.84;99109.63;4921586;29;20017;-80
2023/10/29 07:09:15;;;;;;;;;;;;;;;14.73;65.79;99102.28;4939219;29;19957;-76
2023/10/29 07:11:44;;;;;;;;;;;;;;;14.73;65.76;99110.44;4937063;29;19971;-77
2023/10/29 07:14:09;;;;;;;;;;;;;;;14.72;65.64;99112.34;4937400;29;19962;-79
2023/10/29 07:16:35;;;;;;;;;;;;;;;14.71;65.84;99116.97;4937381;29;20370;-77
2023/10/29 07:19:00;;;;;;;;;;;;;;;14.73;65.31;99119.38;4938201;29;20036;-77
2023/10/29 07:21:26;;;;;;;;;;;;;;;14.72;65.40;99115.06;4937299;29;20271;-78
2023/10/29 07:23:51;;;;;;;;;;;;;;;14.70;65.66;99112.66;4938358;29;19961;-81
2023/10/29 07:26:16;;;;;;;;;;;;;;;14.70;65.78;99123.53;4953549;29;20014;-76
2023/10/29 07:28:42;;;;;;;;;;;;;;;14.67;65.29;99129.59;4938390;29;19915;-78
2023/10/29 07:31:07;;;;;;;;;;;;;;;14.67;65.46;99147.81;4953654;29;19962;-79
2023/10/29 07:33:32;;;;;;;;;;;;;;;14.67;65.41;99151.31;4938159;29;19919;-77
2023/10/29 07:36:01;;;;;;;;;;;;;;;14.67;65.29;99142.38;4937025;29;19926;-77
2023/10/29 07:38:27;;;;;;;;;;;;;;;14.68;65.63;99154.84;4938165;29;19914;-77
2023/10/29 07:40:52;;;;;;;;;;;;;;;14.66;65.66;99154.34;4936894;29;20357;-81
2023/10/29 07:43:18;;;;;;;;;;;;;;;14.68;65.46;99163.78;4921554;29;19919;-78
2023/10/29 07:45:44;;;;;;;;;;;;;;;14.67;65.63;99167.63;4921285;29;19923;-79
2023/10/29 07:48:09;;;;;;;;;;;;;;;14.67;65.51;99145.09;4925013;29;19923;-76
2023/10/29 07:50:35;;;;;;;;;;;;;;;14.65;65.32;99153.53;4955553;29;20009;-78
2023/10/29 07:53:01;;;;;;;;;;;;;;;14.65;65.35;99145.38;4937561;29;19919;-76
2023/10/29 07:55:26;;;;;;;;;;;;;;;14.66;65.13;99152.41;4938127;29;19918;-80
2023/10/29 07:57:51;;;;;;;;;;;;;;;14.66;65.18;99157.06;4938145;29;19965;-79
2023/10/29 08:00:17;;;;;;;;;;;;;;;14.66;65.51;99159.78;4921532;29;19918;-80
2023/10/29 08:02:43;;;;;;;;;;;;;;;14.63;65.64;99165.84;4936736;29;20267;-77
2023/10/29 08:05:10;;;;;;;;;;;;;;;14.63;65.13;99188.38;4936437;29;19915;-77
2023/10/29 08:07:36;;;;;;;;;;;;;;;14.62;65.37;99185.97;4936176;29;19926;-78
2023/10/29 08:10:01;;;;;;;;;;;;;;;14.61;65.49;99195.22;4936089;29;19914;-78
2023/10/29 08:12:28;;;;;;;;;;;;;;;14.60;65.42;99197.13;4937995;29;19942;-77
2023/10/29 08:14:53;;;;;;;;;;;;;;;14.60;65.58;99199.06;4936898;29;19919;-77
2023/10/29 08:17:20;;;;;;;;;;;;;;;14.60;65.43;99199.06;4936755;29;19921;-80
2023/10/29 08:19:45;;;;;;;;;;;;;;;14.59;65.47;99203.69;4936074;29;20387;-77
2023/10/29 08:22:11;;;;;;;;;;;;;;;14.59;65.35;99209.13;4920732;29;19919;-79
2023/10/29 08:24:36;;;;;;;;;;;;;;;14.62;65.46;99219.38;4952347;29;19919;-78
2023/10/29 08:27:01;;;;;;;;;;;;;;;14.61;65.46;99216.97;4919669;29;19928;-78
2023/10/29 08:29:27;;;;;;;;;;;;;;;14.60;65.49;99210.72;4936901;29;19922;-78
2023/10/29 08:31:52;;;;;;;;;;;;;;;14.60;65.56;99209.94;4935933;29;19918;-70
2023/10/29 08:34:18;;;;;;;;;;;;;;;14.61;64.83;99215.03;4936883;29;19915;-80
2023/10/29 08:36:43;;;;;;;;;;;;;;;14.63;64.87;99207.38;4935997;29;20351;-80
2023/10/29 08:39:09;;;;;;;;;;;;;;;14.64;64.77;99208.19;4935425;29;19919;-80
2023/10/29 08:41:34;;;;;;;;;;;;;;;14.64;65.05;99214.44;4937126;29;19918;-79
2023/10/29 08:44:00;;;;;;;;;;;;;;;14.64;65.00;99227.22;4935884;29;19974;-81
2023/10/29 08:46:25;;;;;;;;;;;;;;;14.64;65.16;99224.50;4936232;29;19930;-84
2023/10/29 08:48:51;;;;;;;;;;;;;;;14.64;65.43;99240.81;4936186;29;20355;-83
2023/10/29 08:51:16;;;;;;;;;;;;;;;14.63;65.16;99252.78;4937321;29;19918;-84
2023/10/29 08:53:42;;;;;;;;;;;;;;;14.63;65.25;99250.06;4920629;29;19918;-83
2023/10/29 08:56:07;;;;;;;;;;;;;;;14.64;65.01;99249.78;4920684;29;19973;-84
2023/10/29 08:58:32;;;;;;;;;;;;;;;14.64;65.09;99260.66;4952069;29;19919;-86
2023/10/29 09:00:58;;;;;;;;;;;;;;;14.63;65.42;99269.09;4935705;29;20426;-85
2023/10/29 09:03:24;;;;;;;;;;;;;;;14.61;65.21;99255.81;4951828;29;19915;-84
2023/10/29 09:05:50;;;;;;;;;;;;;;;14.63;65.24;99280.75;4935524;29;19919;-86
2023/10/29 09:08:15;;;;;;;;;;;;;;;14.62;65.35;99287.31;4951439;29;20010;-86
2023/10/29 09:10:43;;;;;;;;;;;;;;;14.62;65.06;99281.88;4935135;29;19926;-84
2023/10/29 09:13:08;;;;;;;;;;;;;;;14.65;64.96;99285.91;4936254;29;19926;-83
2023/10/29 09:15:33;;;;;;;;;;;;;;;14.69;64.91;99304.03;4952032;29;20306;-82
2023/10/29 09:17:59;;;;;;;;;;;;;;;14.69;65.01;99292.31;4919386;29;20009;-80
2023/10/29 09:20:24;;;;;;;;;;;;;;;14.69;65.14;99281.44;4936550;29;19966;-79
2023/10/29 09:22:49;;;;;;;;;;;;;;;14.71;65.10;99290.91;4919625;29;19993;-81
2023/10/29 09:25:14;;;;;;;;;;;;;;;14.74;65.26;99291.41;4950974;29;20037;-80
2023/10/29 09:27:41;;;;;;;;;;;;;;;14.73;65.15;99301.47;4922908;29;19970;-79
2023/10/29 09:30:07;;;;;;;;;;;;;;;14.75;65.24;99303.91;4939523;29;20446;-85
2023/10/29 09:32:34;;;;;;;;;;;;;;;14.74;64.95;99297.66;4938885;29;20355;-80
2023/10/29 09:34:59;;;;;;;;;;;;;;;14.75;64.87;99298.47;4939011;29;19926;-79
2023/10/29 09:37:24;;;;;;;;;;;;;;;14.75;65.21;99304.72;4938499;29;19918;-84
2023/10/29 09:39:50;;;;;;;;;;;;;;;14.77;64.99;99312.56;4923670;29;19973;-78
2023/10/29 09:42:18;;;;;;;;;;;;;;;14.76;65.10;99305.50;4938595;29;20370;-81
2023/10/29 09:44:44;;;;;;;;;;;;;;;14.76;64.92;99283.75;4940184;29;19919;-79
2023/10/29 09:47:12;;;;;;;;;;;;;;;14.77;64.70;99291.63;4954198;29;20005;-82
2023/10/29 09:49:37;;;;;;;;;;;;;;;14.78;65.01;99292.41;4954506;29;19915;-79
2023/10/29 09:52:03;;;;;;;;;;;;;;;14.78;64.75;99285.06;4937979;29;19919;-78
2023/10/29 09:54:29;;;;;;;;;;;;;;;14.79;64.89;99292.13;4940256;29;19998;-79
2023/10/29 09:56:54;;;;;;;;;;;;;;;14.79;64.88;99270.38;4938457;29;20013;-78
2023/10/29 09:59:19;;;;;;;;;;;;;;;14.79;64.57;99270.38;4938020;29;19919;-80
2023/10/29 10:01:44;;;;;;;;;;;;;;;14.79;64.92;99266.84;4940280;29;19958;-80
2023/10/29 10:04:10;;;;;;;;;;;;;;;14.79;64.55;99267.66;4938200;29;20025;-79
2023/10/29 10:06:36;;;;;;;;;;;;;;;14.79;64.88;99270.38;4922459;29;19969;-78
2023/10/29 10:09:02;;;;;;;;;;;;;;;14.79;64.63;99266.84;4939867;29;19958;-78
2023/10/29 10:11:27;;;;;;;;;;;;;;;14.81;64.88;99267.34;4938321;29;20013;-79
2023/10/29 10:13:52;;;;;;;;;;;;;;;14.83;64.83;99262.41;4954458;29;20379;-78
2023/10/29 10:16:19;;;;;;;;;;;;;;;14.84;64.66;99247.69;4939644;29;19966;-78
2023/10/29 10:18:52;;;;;;;;;;;;;;;14.85;64.83;99252.03;4938350;29;19918;-77
2023/10/29 10:21:20;;;;;;;;;;;;;;;14.87;64.50;99268.84;4939041;29;19919;-79
2023/10/29 10:23:55;;;;;;;;;;;;;;;14.88;64.31;99275.88;4938468;29;19914;-77
2023/10/29 10:26:27;;;;;;;;;;;;;;;14.88;64.21;99281.31;4939306;29;20340;-79
2023/10/29 10:28:56;;;;;;;;;;;;;;;14.87;64.30;99293.31;4940173;29;19921;-80
2023/10/29 10:31:22;;;;;;;;;;;;;;;14.87;64.65;99304.19;4939167;29;20366;-84
2023/10/29 10:33:48;;;;;;;;;;;;;;;14.88;64.65;99319.38;4937248;29;19914;-80
2023/10/29 10:36:13;;;;;;;;;;;;;;;14.90;64.63;99306.28;4937819;29;20369;-81
2023/10/29 10:38:54;;;;;;;;;;;;;;;14.88;64.32;99303.06;4921620;29;19918;-78
2023/10/29 10:41:19;;;;;;;;;;;;;;;14.87;64.42;99318.56;4939121;29;19915;-79
2023/10/29 10:43:44;;;;;;;;;;;;;;;14.89;64.43;99318.25;4939530;29;20268;-79
2023/10/29 10:46:11;;;;;;;;;;;;;;;14.88;64.35;99325.59;4939023;29;19966;-78
2023/10/29 10:48:37;;;;;;;;;;;;;;;14.88;64.43;99316.66;4940276;29;19985;-79
2023/10/29 10:51:04;;;;;;;;;;;;;;;14.87;64.63;99325.94;4940583;29;20355;-78
2023/10/29 10:53:30;;;;;;;;;;;;;;;14.89;64.63;99320.97;4921961;29;19972;-80
2023/10/29 10:55:57;;;;;;;;;;;;;;;14.90;64.49;99307.09;4937864;29;19915;-79
2023/10/29 10:58:23;;;;;;;;;;;;;;;14.94;64.32;99299.09;4937598;29;20434;-79
2023/10/29 11:00:49;;;;;;;;;;;;;;;14.94;64.27;99282.78;4938473;29;19918;-79
2023/10/29 11:03:15;;;;;;;;;;;;;;;14.96;64.17;99274.34;4938641;29;19914;-83
2023/10/29 11:05:40;;;;;;;;;;;;;;;14.96;64.20;99268.91;4938467;29;19923;-79
2023/10/29 11:08:06;;;;;;;;;;;;;;;14.97;64.20;99270.50;4937421;29;19982;-83
2023/10/29 11:10:31;;;;;;;;;;;;;;;14.98;63.98;99270.19;4938426;29;19915;-81
2023/10/29 11:13:16;;;;;;;;;;;;;;;14.98;64.47;99283.78;4921227;29;19919;-81
2023/10/29 11:15:46;;;;;;;;;;;;;;;14.99;64.12;99279.16;4938379;29;19915;-78
2023/10/29 11:18:11;;;;;;;;;;;;;;;15.01;64.16;99280.44;4938286;29;20374;-82
2023/10/29 11:20:41;;;;;;;;;;;;;;;15.02;64.02;99273.09;4937177;29;19915;-77
2023/10/29 11:23:07;;;;;;;;;;;;;;;15.04;64.05;99258.06;4938759;29;19922;-79
2023/10/29 11:25:33;;;;;;;;;;;;;;;15.02;64.10;99246.72;4937213;29;20299;-79
2023/10/29 11:27:58;;;;;;;;;;;;;;;15.01;64.00;99253.25;4936915;29;19921;-79
2023/10/29 11:30:27;;;;;;;;;;;;;;;15.02;64.05;99235.84;4937270;29;19919;-79
2023/10/29 11:33:12;;;;;;;;;;;;;;;15.04;64.20;99228.16;4952722;29;19919;-80
2023/10/29 11:35:37;;;;;;;;;;;;;;;15.04;64.32;99221.94;4938081;29;19922;-81
2023/10/29 11:38:21;;;;;;;;;;;;;;;15.06;63.96;99220.50;4938431;29;19918;-81
2023/10/29 11:40:46;;;;;;;;;;;;;;;15.08;63.87;99199.25;4936758;29;20381;-80
2023/10/29 11:43:16;;;;;;;;;;;;;;;15.09;64.05;99200.03;4936527;29;19918;-79
2023/10/29 11:45:41;;;;;;;;;;;;;;;15.09;64.46;99197.31;4937663;29;19965;-79
2023/10/29 11:48:07;;;;;;;;;;;;;;;15.10;64.22;99197.03;4936747;29;19946;-79
2023/10/29 11:50:32;;;;;;;;;;;;;;;15.11;64.14;99190.47;4937677;29;20410;-79
2023/10/29 11:52:58;;;;;;;;;;;;;;;15.11;64.35;99179.59;4937381;29;19915;-80
2023/10/29 11:55:26;;;;;;;;;;;;;;;15.12;64.12;99183.94;4936968;29;20339;-81
2023/10/29 11:57:53;;;;;;;;;;;;;;;15.14;64.30;99189.88;4936289;29;19914;-80
2023/10/29 12:00:21;;;;;;;;;;;;;;;15.15;64.33;99202.34;4936461;29;19915;-79
2023/10/29 12:02:47;;;;;;;;;;;;;;;15.17;64.21;99203.94;4937563;29;20013;-81
2023/10/29 12:05:12;;;;;;;;;;;;;;;15.18;64.17;99217.22;4936046;29;20005;-79
2023/10/29 12:07:37;;;;;;;;;;;;;;;15.19;64.52;99229.72;4937399;29;19914;-83
2023/10/29 12:10:06;;;;;;;;;;;;;;;15.18;64.03;99230.03;4935966;29;19914;-79
2023/10/29 12:12:31;;;;;;;;;;;;;;;15.17;64.43;99229.25;4936993;29;20347;-79
2023/10/29 12:14:56;;;;;;;;;;;;;;;15.19;64.24;99232.44;4920129;29;19930;-80
2023/10/29 12:17:22;;;;;;;;;;;;;;;15.19;64.38;99224.25;4936145;29;19919;-83
2023/10/29 12:19:47;;;;;;;;;;;;;;;15.20;64.21;99215.00;4935832;29;20422;-79
2023/10/29 12:22:12;;;;;;;;;;;;;;;15.22;64.22;99211.97;4937014;29;19962;-79
2023/10/29 12:24:38;;;;;;;;;;;;;;;15.24;64.21;99215.19;4935803;29;20451;-78
2023/10/29 12:27:03;;;;;;;;;;;;;;;15.24;64.25;99210.53;4935678;29;20335;-80
2023/10/29 12:29:28;;;;;;;;;;;;;;;15.25;64.30;99208.66;4935711;29;20322;-79
2023/10/29 12:31:54;;;;;;;;;;;;;;;15.28;64.29;99205.28;4937098;29;19974;-79
2023/10/29 12:34:19;;;;;;;;;;;;;;;15.29;64.17;99215.06;4951941;29;19970;-78
2023/10/29 12:36:53;;;;;;;;;;;;;;;15.31;64.29;99210.09;4920232;29;19957;-80
2023/10/29 12:39:19;;;;;;;;;;;;;;;15.32;64.35;99226.13;4951127;29;19926;-80
2023/10/29 12:41:53;;;;;;;;;;;;;;;15.32;64.31;99225.31;4935567;29;19914;-83